Ruffin, North Carolina
Current Conditions -  °F | °C
As of 1:53 AM on Thursday 18 Dec 2014 (Local Time) from KDAN Reporting Station
Clear Clear  
Wind Chill: 35°   Ceiling: Unl
Heat Index: 39°   Visibility: 10mi
Dew Point: 24°   Wind: 6mph
Humidity: 55%   Direction: 350°N
Pressure: 30.1"   Gusts: NA
Location:  36.45°N, 79.54°W
Report Text: KDAN 180653Z AUTO 35005KT 10SM CLR 04/M04 A3010 RMK AO2 SLP189 T00391044
Loading
Personal Weather Stations






























Interactive Weather Map New forecast layout! Learn more

10-Day Weather Forecast

Advertisements
Track Severe Weather on mobile